createdAt,value
2018-04-10T00:00:32.671Z,69.98
2018-04-10T00:01:32.838Z,69.79
2018-04-10T00:02:33.011Z,70.17
2018-04-10T00:03:33.178Z,69.50
2018-04-10T00:04:33.340Z,69.21
2018-04-10T00:05:33.510Z,70.17
2018-04-10T00:06:33.679Z,69.31
2018-04-10T00:07:33.849Z,70.27
2018-04-10T00:08:34.027Z,70.84
2018-04-10T00:09:34.192Z,71.13
2018-04-10T00:10:34.365Z,70.75
2018-04-10T00:11:34.538Z,70.17
2018-04-10T00:12:34.708Z,70.17
2018-04-10T00:13:34.873Z,69.89
2018-04-10T00:14:35.045Z,69.89
2018-04-10T00:15:35.213Z,69.79
2018-04-10T00:16:35.382Z,70.07
2018-04-10T00:17:35.542Z,69.60
2018-04-10T00:18:35.717Z,69.70
2018-04-10T00:19:35.886Z,69.70
2018-04-10T00:20:36.049Z,70.07
2018-04-10T00:21:36.214Z,70.36
2018-04-10T00:22:36.387Z,70.65
2018-04-10T00:23:36.553Z,71.03
2018-04-10T00:24:36.733Z,70.84
2018-04-10T00:25:36.904Z,70.84
2018-04-10T00:26:37.072Z,70.94
2018-04-10T00:27:37.239Z,71.32
2018-04-10T00:28:37.408Z,70.75
2018-04-10T00:29:37.588Z,70.75
2018-04-10T00:30:37.757Z,71.03
2018-04-10T00:31:37.909Z,71.42
2018-04-10T00:32:38.075Z,71.42
2018-04-10T00:33:38.242Z,71.19
2018-04-10T00:34:38.418Z,71.38
2018-04-10T00:35:38.580Z,71.86
2018-04-10T00:36:38.744Z,71.86
2018-04-10T00:37:38.913Z,71.67
2018-04-10T00:38:39.085Z,72.62
2018-04-10T00:39:39.255Z,72.53
2018-04-10T00:40:39.427Z,72.91
2018-04-10T00:41:39.598Z,72.62
2018-04-10T00:42:39.761Z,72.72
2018-04-10T00:43:39.937Z,72.72
2018-04-10T00:44:40.108Z,72.72
2018-04-10T00:45:40.280Z,72.53
2018-04-10T00:46:40.447Z,72.62
2018-04-10T00:47:40.629Z,72.72
2018-04-10T00:48:40.795Z,72.43
2018-04-10T00:49:40.967Z,73.00
2018-04-10T00:50:41.129Z,72.62
2018-04-10T00:51:41.300Z,72.72
2018-04-10T00:52:41.463Z,73.19
2018-04-10T00:53:41.621Z,73.19
2018-04-10T00:54:41.789Z,73.86
2018-04-10T00:55:41.959Z,73.77
2018-04-10T00:56:42.132Z,73.96
2018-04-10T00:57:42.301Z,74.24
2018-04-10T00:58:42.464Z,74.34
2018-04-10T00:59:42.636Z,74.53
2018-04-10T01:00:42.815Z,74.34
2018-04-10T01:01:42.981Z,74.05
2018-04-10T01:02:43.153Z,73.96
2018-04-10T01:03:43.319Z,74.05
2018-04-10T01:04:43.482Z,73.67
2018-04-10T01:05:43.653Z,73.77
2018-04-10T01:06:43.821Z,73.77
2018-04-10T01:07:43.993Z,73.86
2018-04-10T01:08:44.155Z,73.96
2018-04-10T01:09:44.333Z,73.77
2018-04-10T01:10:44.503Z,73.39
2018-04-10T01:11:44.672Z,73.67
2018-04-10T01:12:44.847Z,73.96
2018-04-10T01:13:45.003Z,73.86
2018-04-10T01:14:45.170Z,73.67
2018-04-10T01:15:45.340Z,73.58
2018-04-10T01:16:45.508Z,73.96
2018-04-10T01:17:45.711Z,73.96
2018-04-10T01:18:45.855Z,73.96
2018-04-10T01:19:46.024Z,74.24
2018-04-10T01:20:46.192Z,74.44
2018-04-10T01:21:46.362Z,74.40
2018-04-10T01:22:46.528Z,74.88
2018-04-10T01:23:46.697Z,74.88
2018-04-10T01:24:46.873Z,74.88
2018-04-10T01:25:47.048Z,74.88
2018-04-10T01:26:47.218Z,74.59
2018-04-10T01:27:47.391Z,74.21
2018-04-10T01:28:47.564Z,74.59
2018-04-10T01:29:47.723Z,74.05
2018-04-10T01:30:47.895Z,73.83
2018-04-10T01:31:48.056Z,74.15
2018-04-10T01:32:48.230Z,73.83
2018-04-10T01:33:48.398Z,74.40
2018-04-10T01:34:48.576Z,74.44
2018-04-10T01:35:48.753Z,74.21
2018-04-10T01:36:48.918Z,74.15
2018-04-10T01:37:49.083Z,74.98
2018-04-10T01:38:49.250Z,74.88
2018-04-10T01:39:49.423Z,75.45
2018-04-10T01:40:49.594Z,75.26
2018-04-10T01:41:49.768Z,75.07
2018-04-10T01:42:49.941Z,75.26
2018-04-10T01:43:50.108Z,74.69
2018-04-10T01:44:50.280Z,74.98
2018-04-10T01:45:50.453Z,74.78
2018-04-10T01:46:50.628Z,75.26
2018-04-10T01:47:50.791Z,75.45
2018-04-10T01:48:50.958Z,75.35
2018-04-10T01:49:51.126Z,75.45
2018-04-10T01:50:51.293Z,75.16
2018-04-10T01:51:51.465Z,75.74
2018-04-10T01:52:51.639Z,75.35
2018-04-10T01:53:51.805Z,75.26
2018-04-10T01:54:51.969Z,75.74
2018-04-10T01:55:52.134Z,75.64
2018-04-10T01:56:52.307Z,75.74
2018-04-10T01:57:52.469Z,75.83
2018-04-10T01:58:52.638Z,74.98
2018-04-10T01:59:52.810Z,75.16
2018-04-10T02:00:53.302Z,75.32
2018-04-10T02:01:53.475Z,76.08
2018-04-10T02:02:53.542Z,75.70
2018-04-10T02:03:53.821Z,76.18
2018-04-10T02:04:53.956Z,76.65
2018-04-10T02:05:53.820Z,76.18
2018-04-10T02:06:54.310Z,76.37
2018-04-10T02:07:54.401Z,76.08
2018-04-10T02:08:54.546Z,76.46
2018-04-10T02:09:54.781Z,76.94
2018-04-10T02:10:54.548Z,77.32
2018-04-10T02:11:54.734Z,77.42
2018-04-10T02:12:54.924Z,77.51
2018-04-10T02:13:55.100Z,77.42
2018-04-10T02:14:55.274Z,77.03
2018-04-10T02:15:55.451Z,76.37
2018-04-10T02:16:55.649Z,76.56
2018-04-10T02:17:55.826Z,76.94
2018-04-10T02:18:56.008Z,76.94
2018-04-10T02:19:56.176Z,76.37
2018-04-10T02:20:56.386Z,76.46
2018-04-10T02:21:56.548Z,76.56
2018-04-10T02:22:56.733Z,77.51
2018-04-10T02:23:56.911Z,77.51
2018-04-10T02:24:57.090Z,76.90
2018-04-10T02:25:57.267Z,77.28
2018-04-10T02:26:57.454Z,78.14
2018-04-10T02:27:57.630Z,78.43
2018-04-10T02:28:57.818Z,79.00
2018-04-10T02:29:57.997Z,79.04
2018-04-10T02:30:58.182Z,79.38
2018-04-10T02:31:58.360Z,78.94
2018-04-10T02:32:58.540Z,79.04
2018-04-10T02:33:58.720Z,79.23
2018-04-10T02:34:58.902Z,79.14
2018-04-10T02:35:59.093Z,79.33
2018-04-10T02:36:59.278Z,78.37
2018-04-10T02:37:59.462Z,77.80
2018-04-10T02:38:59.637Z,78.09
2018-04-10T02:39:59.814Z,77.89
2018-04-10T02:40:59.998Z,77.99
2018-04-10T02:42:00.177Z,77.80
2018-04-10T02:43:00.362Z,77.51
2018-04-10T02:44:00.539Z,78.37
2018-04-10T02:45:00.718Z,79.52
2018-04-10T02:46:00.895Z,80.33
2018-04-10T02:47:01.062Z,80.05
2018-04-10T02:48:01.251Z,80.43
2018-04-10T02:49:01.423Z,80.43
2018-04-10T02:50:01.616Z,80.53
2018-04-10T02:51:01.786Z,80.05
2018-04-10T02:52:01.958Z,80.28
2018-04-10T02:53:02.143Z,79.96
2018-04-10T02:54:02.325Z,80.09
2018-04-10T02:55:02.507Z,80.05
2018-04-10T02:56:02.683Z,79.86
2018-04-10T02:57:02.861Z,79.96
2018-04-10T02:58:03.035Z,79.86
2018-04-10T02:59:03.214Z,80.38
2018-04-10T03:00:03.398Z,79.96
2018-04-10T03:01:03.572Z,80.15
2018-04-10T03:02:03.748Z,79.67
2018-04-10T03:03:03.929Z,79.86
2018-04-10T03:04:04.105Z,79.57
2018-04-10T03:05:04.285Z,78.91
2018-04-10T03:06:04.481Z,79.00
2018-04-10T03:07:04.658Z,79.00
2018-04-10T03:08:04.841Z,78.91
2018-04-10T03:09:05.018Z,78.52
2018-04-10T03:10:05.186Z,78.52
2018-04-10T03:11:05.379Z,78.33
2018-04-10T03:12:05.569Z,78.33
2018-04-10T03:13:05.750Z,77.76
2018-04-10T03:14:05.918Z,77.86
2018-04-10T03:15:06.095Z,77.89
2018-04-10T03:16:06.276Z,77.76
2018-04-10T03:17:06.456Z,78.23
2018-04-10T03:18:06.634Z,79.19
2018-04-10T03:19:06.819Z,78.81
2018-04-10T03:20:07.000Z,79.28
2018-04-10T03:21:07.177Z,78.91
2018-04-10T03:22:07.359Z,79.00
2018-04-10T03:23:07.532Z,79.10
2018-04-10T03:24:07.711Z,78.91
2018-04-10T03:25:07.900Z,79.28
2018-04-10T03:26:08.090Z,78.52
2018-04-10T03:27:08.273Z,78.81
2018-04-10T03:28:08.452Z,79.38
2018-04-10T03:29:08.627Z,79.10
2018-04-10T03:30:08.823Z,79.10
2018-04-10T03:31:09.008Z,78.91
2018-04-10T03:32:09.188Z,79.00
2018-04-10T03:33:09.379Z,78.91
2018-04-10T03:34:09.557Z,79.28
2018-04-10T03:35:09.729Z,80.05
2018-04-10T03:36:09.911Z,80.43
2018-04-10T03:37:10.086Z,80.33
2018-04-10T03:38:10.268Z,80.05
2018-04-10T03:39:10.447Z,80.15
2018-04-10T03:40:10.632Z,81.01
2018-04-10T03:41:10.810Z,81.01
2018-04-10T03:42:10.992Z,81.01
2018-04-10T03:43:11.165Z,81.29
2018-04-10T03:44:11.339Z,81.67
2018-04-10T03:45:11.528Z,81.10
2018-04-10T03:46:11.718Z,80.72
2018-04-10T03:47:11.892Z,81.20
2018-04-10T03:48:12.065Z,81.38
2018-04-10T03:49:12.247Z,81.29
2018-04-10T03:50:12.425Z,81.06
2018-04-10T03:51:12.592Z,81.67
2018-04-10T03:52:12.759Z,81.35
2018-04-10T03:53:12.916Z,81.25
2018-04-10T03:54:13.099Z,80.87
2018-04-10T03:55:13.268Z,80.91
2018-04-10T03:56:13.441Z,80.39
2018-04-10T03:57:13.606Z,80.05
2018-04-10T03:58:13.770Z,80.24
2018-04-10T03:59:13.951Z,80.30
2018-04-10T04:00:14.119Z,80.43
2018-04-10T04:01:14.312Z,80.39
2018-04-10T04:02:14.443Z,80.20
2018-04-10T04:03:14.611Z,80.49
2018-04-10T04:04:14.776Z,80.87
2018-04-10T04:05:14.952Z,80.11
2018-04-10T04:06:15.117Z,80.39
2018-04-10T04:07:15.285Z,80.20
2018-04-10T04:08:15.457Z,80.01
2018-04-10T04:09:15.623Z,80.11
2018-04-10T04:10:15.791Z,80.39
2018-04-10T04:11:15.954Z,80.20
2018-04-10T04:12:16.121Z,80.20
2018-04-10T04:13:16.290Z,80.11
2018-04-10T04:14:16.479Z,80.01
2018-04-10T04:15:16.620Z,81.35
2018-04-10T04:16:16.787Z,81.15
2018-04-10T04:17:16.971Z,81.54
2018-04-10T04:18:17.141Z,80.96
2018-04-10T04:19:17.302Z,81.06
2018-04-10T04:20:17.478Z,81.35
2018-04-10T04:21:17.646Z,81.44
2018-04-10T04:22:17.816Z,81.06
2018-04-10T04:23:17.990Z,80.68
2018-04-10T04:24:18.160Z,80.87
2018-04-10T04:25:18.327Z,80.77
2018-04-10T04:26:18.488Z,80.30
2018-04-10T04:27:18.663Z,80.30
2018-04-10T04:28:18.842Z,80.68
2018-04-10T04:29:19.004Z,81.06
2018-04-10T04:30:19.177Z,81.15
2018-04-10T04:31:19.349Z,81.35
2018-04-10T04:32:19.520Z,81.15
2018-04-10T04:33:19.687Z,81.15
2018-04-10T04:34:19.862Z,81.63
2018-04-10T04:35:20.030Z,81.92
2018-04-10T04:36:20.203Z,81.82
2018-04-10T04:37:20.397Z,81.73
2018-04-10T04:38:20.538Z,81.54
2018-04-10T04:39:20.719Z,81.73
2018-04-10T04:40:20.887Z,82.73
2018-04-10T04:41:21.061Z,83.06
2018-04-10T04:42:21.228Z,83.54
2018-04-10T04:43:21.397Z,82.26
2018-04-10T04:44:21.571Z,82.78
2018-04-10T04:45:21.725Z,81.78
2018-04-10T04:46:21.892Z,81.49
2018-04-10T04:47:22.061Z,82.17
2018-04-10T04:48:22.228Z,82.07
2018-04-10T04:49:22.399Z,82.17
2018-04-10T04:50:22.567Z,82.35
2018-04-10T04:51:22.734Z,82.83
2018-04-10T04:52:22.940Z,82.92
2018-04-10T04:53:23.072Z,82.64
2018-04-10T04:54:23.237Z,82.35
2018-04-10T04:55:23.469Z,82.26
2018-04-10T04:56:23.635Z,82.35
2018-04-10T04:57:23.911Z,82.35
2018-04-10T04:58:24.017Z,82.83
2018-04-10T04:59:24.186Z,82.59
2018-04-10T05:00:24.356Z,82.11
2018-04-10T05:01:24.523Z,82.11
2018-04-10T05:02:24.685Z,82.11
2018-04-10T05:03:24.860Z,81.73
2018-04-10T05:04:25.037Z,81.63
2018-04-10T05:05:25.197Z,81.92
2018-04-10T05:06:25.391Z,82.01
2018-04-10T05:07:25.552Z,82.20
2018-04-10T05:08:25.739Z,82.59
2018-04-10T05:09:25.890Z,82.59
2018-04-10T05:10:26.056Z,82.20
2018-04-10T05:11:26.223Z,82.49
2018-04-10T05:12:26.394Z,82.49
2018-04-10T05:13:26.560Z,81.73
2018-04-10T05:14:26.735Z,81.15
2018-04-10T05:15:26.955Z,81.06
2018-04-10T05:16:27.072Z,80.72
2018-04-10T05:17:27.246Z,80.53
2018-04-10T05:18:27.409Z,80.53
2018-04-10T05:19:27.576Z,80.24
2018-04-10T05:20:27.746Z,79.77
2018-04-10T05:21:27.923Z,80.33
2018-04-10T05:22:28.085Z,79.96
2018-04-10T05:23:28.255Z,80.33
2018-04-10T05:24:28.423Z,79.77
2018-04-10T05:25:28.582Z,79.10
2018-04-10T05:26:28.750Z,79.28
2018-04-10T05:27:28.925Z,78.86
2018-04-10T05:28:29.092Z,79.10
2018-04-10T05:29:29.253Z,78.91
2018-04-10T05:30:29.424Z,79.10
2018-04-10T05:31:29.593Z,79.57
2018-04-10T05:32:29.771Z,79.67
2018-04-10T05:33:29.945Z,79.53
2018-04-10T05:34:30.107Z,80.20
2018-04-10T05:35:30.279Z,80.20
2018-04-10T05:36:30.448Z,80.39
2018-04-10T05:37:30.620Z,80.30
2018-04-10T05:38:30.787Z,80.43
2018-04-10T05:39:30.964Z,80.39
2018-04-10T05:40:31.145Z,80.20
2018-04-10T05:41:31.312Z,80.68
2018-04-10T05:42:31.481Z,80.72
2018-04-10T05:43:31.658Z,79.77
2018-04-10T05:44:31.827Z,79.77
2018-04-10T05:45:31.988Z,80.72
2018-04-10T05:46:32.158Z,80.91
2018-04-10T05:47:32.322Z,81.10
2018-04-10T05:48:32.489Z,81.38
2018-04-10T05:49:32.657Z,81.29
2018-04-10T05:50:32.830Z,81.29
2018-04-10T05:51:32.995Z,81.38
2018-04-10T05:52:33.174Z,81.54
2018-04-10T05:53:33.342Z,81.92
2018-04-10T05:54:33.506Z,81.92
2018-04-10T05:55:33.675Z,81.86
2018-04-10T05:56:33.852Z,81.96
2018-04-10T05:57:34.033Z,81.86
2018-04-10T05:58:34.208Z,81.86
2018-04-10T05:59:34.373Z,81.58
2018-04-10T06:00:34.540Z,81.77
2018-04-10T06:01:34.718Z,82.15
2018-04-10T06:02:34.884Z,82.24
2018-04-10T06:03:35.067Z,82.34
2018-04-10T06:04:35.234Z,82.63
2018-04-10T06:05:35.411Z,82.24
2018-04-10T06:06:36.320Z,82.24
2018-04-10T06:07:35.743Z,82.15
2018-04-10T06:08:35.911Z,82.43
2018-04-10T06:09:36.080Z,82.72
2018-04-10T06:10:36.249Z,82.15
2018-04-10T06:11:36.418Z,82.24
2018-04-10T06:12:36.589Z,81.90
2018-04-10T06:13:36.752Z,81.81
2018-04-10T06:14:36.923Z,81.52
2018-04-10T06:15:37.089Z,81.20
2018-04-10T06:16:37.259Z,81.43
2018-04-10T06:17:37.430Z,81.33
2018-04-10T06:18:37.598Z,81.43
2018-04-10T06:19:37.769Z,81.58
2018-04-10T06:20:37.939Z,82.29
2018-04-10T06:21:38.111Z,81.90
2018-04-10T06:22:38.281Z,82.34
2018-04-10T06:23:38.449Z,83.77
2018-04-10T06:24:38.621Z,83.29
2018-04-10T06:25:38.807Z,82.15
2018-04-10T06:26:38.970Z,81.71
2018-04-10T06:27:39.140Z,82.09
2018-04-10T06:28:39.309Z,81.43
2018-04-10T06:29:39.482Z,81.04
2018-04-10T06:30:39.659Z,80.47
2018-04-10T06:31:39.822Z,79.65
2018-04-10T06:32:39.992Z,78.89
2018-04-10T06:33:40.167Z,77.74
2018-04-10T06:34:40.335Z,78.89
2018-04-10T06:35:40.525Z,78.79
2018-04-10T06:36:40.691Z,79.04
2018-04-10T06:37:40.860Z,80.19
2018-04-10T06:38:41.027Z,80.22
2018-04-10T06:39:41.203Z,79.94
2018-04-10T06:40:41.391Z,79.17
2018-04-10T06:41:41.555Z,78.64
2018-04-10T06:42:41.735Z,79.31
2018-04-10T06:43:41.931Z,77.97
2018-04-10T06:44:42.099Z,76.77
2018-04-10T06:45:42.267Z,76.00
2018-04-10T06:46:42.442Z,76.77
2018-04-10T06:47:42.640Z,75.62
2018-04-10T06:48:42.786Z,76.10
2018-04-10T06:49:42.951Z,76.48
2018-04-10T06:50:43.118Z,76.67
2018-04-10T06:51:43.296Z,76.57
2018-04-10T06:52:43.464Z,77.63
2018-04-10T06:53:43.632Z,78.16
2018-04-10T06:54:43.802Z,77.78
2018-04-10T06:55:43.985Z,78.83
2018-04-10T06:56:44.150Z,79.22
2018-04-10T06:57:44.317Z,78.68
2018-04-10T06:58:44.494Z,78.11
2018-04-10T06:59:44.665Z,77.53
2018-04-10T07:00:44.848Z,77.53
2018-04-10T07:01:45.018Z,77.34
2018-04-10T07:02:45.190Z,77.11
2018-04-10T07:03:45.360Z,77.87
2018-04-10T07:04:45.526Z,77.53
2018-04-10T07:05:45.693Z,78.01
2018-04-10T07:06:45.868Z,77.53
2018-04-10T07:07:46.036Z,76.67
2018-04-10T07:08:46.208Z,76.20
2018-04-10T07:09:46.386Z,76.57
2018-04-10T07:10:46.541Z,77.53
2018-04-10T07:11:46.701Z,77.57
2018-04-10T07:12:46.879Z,77.15
2018-04-10T07:13:47.057Z,77.25
2018-04-10T07:14:47.228Z,77.28
2018-04-10T07:15:47.397Z,77.09
2018-04-10T07:16:47.567Z,78.05
2018-04-10T07:17:47.740Z,77.67
2018-04-10T07:18:47.905Z,77.57
2018-04-10T07:19:48.082Z,78.43
2018-04-10T07:20:48.249Z,77.86
2018-04-10T07:21:48.416Z,79.68
2018-04-10T07:22:48.594Z,77.38
2018-04-10T07:23:48.764Z,76.62
2018-04-10T07:24:48.934Z,76.23
2018-04-10T07:25:49.099Z,76.90
2018-04-10T07:26:49.269Z,76.75
2018-04-10T07:27:49.445Z,77.04
2018-04-10T07:28:49.609Z,75.51
2018-04-10T07:29:49.783Z,75.41
2018-04-10T07:30:49.959Z,75.70
2018-04-10T07:31:50.120Z,75.41
2018-04-10T07:32:50.296Z,75.79
2018-04-10T07:33:50.475Z,75.85
2018-04-10T07:34:50.650Z,77.67
2018-04-10T07:35:50.818Z,75.66
2018-04-10T07:36:50.990Z,76.42
2018-04-10T07:37:51.169Z,77.42
2018-04-10T07:38:51.332Z,77.23
2018-04-10T07:39:51.497Z,76.37
2018-04-10T07:40:51.656Z,77.23
2018-04-10T07:41:51.829Z,76.08
2018-04-10T07:42:52.026Z,75.60
2018-04-10T07:43:52.197Z,75.98
2018-04-10T07:44:52.367Z,76.18
2018-04-10T07:45:53.348Z,75.60
2018-04-10T07:46:52.769Z,75.83
2018-04-10T07:47:52.933Z,75.54
2018-04-10T07:48:53.109Z,75.35
2018-04-10T07:49:53.276Z,75.73
2018-04-10T07:50:53.451Z,75.35
2018-04-10T07:51:53.622Z,75.26
2018-04-10T07:52:53.789Z,75.07
2018-04-10T07:53:53.970Z,75.16
2018-04-10T07:54:54.144Z,74.33
2018-04-10T07:55:54.320Z,75.20
2018-04-10T07:56:54.489Z,75.20
2018-04-10T07:57:54.662Z,74.57
2018-04-10T07:58:54.832Z,73.80
2018-04-10T07:59:54.999Z,72.64
2018-04-10T08:00:55.181Z,72.45
2018-04-10T08:01:55.366Z,73.90
2018-04-10T08:02:55.517Z,71.78
2018-04-10T08:03:55.690Z,71.50
2018-04-10T08:04:55.861Z,71.98
2018-04-10T08:05:56.028Z,71.34
2018-04-10T08:06:56.200Z,70.86
2018-04-10T08:07:56.371Z,71.47
2018-04-10T08:08:56.555Z,71.76
2018-04-10T08:09:56.722Z,71.57
2018-04-10T08:10:56.900Z,70.90
2018-04-10T08:11:57.067Z,71.22
2018-04-10T08:12:57.243Z,69.97
2018-04-10T08:13:57.416Z,69.78
2018-04-10T08:14:57.577Z,68.63
2018-04-10T08:15:57.747Z,68.05
2018-04-10T08:16:57.920Z,67.76
2018-04-10T08:17:58.091Z,67.03
2018-04-10T08:18:58.261Z,68.47
2018-04-10T08:19:58.440Z,67.22
2018-04-10T08:20:58.622Z,65.59
2018-04-10T08:21:58.804Z,65.81
2018-04-10T08:22:58.972Z,66.68
2018-04-10T08:23:59.137Z,65.14
2018-04-10T08:24:59.333Z,64.56
2018-04-10T08:25:59.512Z,64.50
2018-04-10T08:26:59.688Z,64.40
2018-04-10T08:27:59.866Z,62.48
2018-04-10T08:29:00.037Z,60.97
2018-04-10T08:30:00.210Z,60.81
2018-04-10T08:31:00.381Z,58.20
2018-04-10T08:32:00.562Z,55.66
2018-04-10T08:33:00.734Z,51.78
2018-04-10T08:34:00.910Z,48.74
2018-04-10T08:35:01.082Z,45.90
2018-04-10T08:36:01.295Z,43.26
2018-04-10T08:37:01.442Z,40.97
2018-04-10T08:38:01.616Z,39.26
2018-04-10T08:39:01.790Z,39.47
2018-04-10T08:40:01.965Z,38.11
2018-04-10T08:41:02.141Z,36.87
2018-04-10T08:42:02.315Z,36.88
2018-04-10T08:43:02.527Z,37.10
2018-04-10T08:44:02.669Z,34.48
2018-04-10T08:45:02.854Z,34.01
2018-04-10T08:46:03.038Z,33.23
2018-04-10T08:47:03.217Z,32.67
2018-04-10T08:48:03.394Z,32.29
2018-04-10T08:49:03.569Z,31.43
2018-04-10T08:50:03.744Z,31.15
2018-04-10T08:51:03.924Z,29.88
2018-04-10T08:52:04.107Z,29.31
2018-04-10T08:53:04.291Z,28.54
2018-04-10T08:54:04.466Z,27.67
2018-04-10T08:55:04.646Z,27.59
2018-04-10T08:56:04.833Z,27.00
2018-04-10T08:57:05.015Z,26.53
2018-04-10T08:58:05.196Z,27.52
2018-04-10T08:59:05.375Z,27.62
2018-04-10T09:00:05.553Z,27.10
2018-04-10T09:01:05.742Z,28.75
2018-04-10T09:02:05.929Z,27.08
2018-04-10T09:03:06.106Z,26.99
2018-04-10T09:04:06.275Z,26.42
2018-04-10T09:05:06.457Z,26.15
2018-04-10T09:06:06.640Z,25.67
2018-04-10T09:07:06.818Z,25.48
2018-04-10T09:08:07.024Z,26.86
2018-04-10T09:09:07.200Z,26.56
2018-04-10T09:10:07.382Z,24.62
2018-04-10T09:11:07.562Z,23.94
2018-04-10T09:12:07.739Z,24.04
2018-04-10T09:13:07.923Z,23.66
2018-04-10T09:14:08.108Z,23.94
2018-04-10T09:15:08.288Z,23.36
2018-04-10T09:16:08.468Z,22.97
2018-04-10T09:17:08.668Z,22.88
2018-04-10T09:18:08.845Z,23.44
2018-04-10T09:19:09.032Z,22.98
2018-04-10T09:20:09.220Z,22.60
2018-04-10T09:21:09.415Z,22.20
2018-04-10T09:22:09.594Z,21.63
2018-04-10T09:23:09.785Z,21.05
2018-04-10T09:24:09.988Z,21.15
2018-04-10T09:25:10.183Z,20.65
2018-04-10T09:26:10.356Z,20.76
2018-04-10T09:27:10.544Z,19.98
2018-04-10T09:28:10.727Z,20.07
2018-04-10T09:29:10.911Z,19.88
2018-04-10T09:30:11.101Z,19.89
2018-04-10T09:31:11.301Z,19.60
2018-04-10T09:32:11.472Z,19.12
2018-04-10T09:33:11.648Z,18.93
2018-04-10T09:34:11.840Z,19.02
2018-04-10T09:35:12.038Z,18.73
2018-04-10T09:36:12.236Z,18.84
2018-04-10T09:37:12.427Z,18.16
2018-04-10T09:38:12.610Z,18.25
2018-04-10T09:39:12.820Z,18.84
2018-04-10T09:40:13.009Z,18.06
2018-04-10T09:41:13.194Z,17.87
2018-04-10T09:42:13.383Z,18.07
2018-04-10T09:43:13.569Z,17.39
2018-04-10T09:44:13.774Z,17.39
2018-04-10T09:45:13.964Z,17.69
2018-04-10T09:46:14.152Z,16.90
2018-04-10T09:47:14.336Z,16.71
2018-04-10T09:48:14.538Z,17.39
2018-04-10T09:49:14.732Z,16.41
2018-04-10T09:50:14.953Z,16.50
2018-04-10T09:51:15.114Z,16.71
2018-04-10T09:52:15.307Z,15.63
2018-04-10T09:53:15.498Z,15.73
2018-04-10T09:54:15.691Z,15.75
2018-04-10T09:55:15.883Z,15.25
2018-04-10T09:56:16.082Z,14.56
2018-04-10T09:57:16.268Z,14.75
2018-04-10T09:58:16.471Z,14.25
2018-04-10T09:59:16.652Z,14.92
2018-04-10T10:00:16.839Z,15.61
2018-04-10T10:01:17.035Z,15.61
2018-04-10T10:02:17.225Z,15.72
2018-04-10T10:03:17.407Z,14.75
2018-04-10T10:04:17.613Z,14.84
2018-04-10T10:05:17.811Z,15.13
2018-04-10T10:06:17.994Z,14.74
2018-04-10T10:07:18.193Z,15.03
2018-04-10T10:08:18.380Z,14.93
2018-04-10T10:09:18.569Z,14.75
2018-04-10T10:10:18.759Z,14.75
2018-04-10T10:11:18.969Z,14.35
2018-04-10T10:12:19.142Z,14.36
2018-04-10T10:13:19.333Z,14.15
2018-04-10T10:14:19.529Z,14.36
2018-04-10T10:15:19.719Z,13.58
2018-04-10T10:16:19.918Z,13.77
2018-04-10T10:17:20.111Z,13.28
2018-04-10T10:18:20.302Z,13.66
2018-04-10T10:19:20.495Z,13.47
2018-04-10T10:20:20.688Z,13.57
2018-04-10T10:21:20.872Z,13.47
2018-04-10T10:22:21.063Z,13.37
2018-04-10T10:23:21.254Z,13.37
2018-04-10T10:24:21.444Z,13.18
2018-04-10T10:25:21.638Z,13.38
2018-04-10T10:26:21.832Z,13.49
2018-04-10T10:27:22.021Z,12.80
2018-04-10T10:28:22.213Z,13.08
2018-04-10T10:29:22.405Z,13.18
2018-04-10T10:30:22.598Z,12.78
2018-04-10T10:31:22.790Z,12.99
2018-04-10T10:32:22.981Z,13.20
2018-04-10T10:33:23.171Z,12.31
2018-04-10T10:34:23.367Z,12.51
2018-04-10T10:35:23.567Z,12.51
2018-04-10T10:36:23.759Z,12.30
2018-04-10T10:37:23.954Z,12.60
2018-04-10T10:38:24.144Z,12.40
2018-04-10T10:39:24.344Z,12.12
2018-04-10T10:40:24.540Z,12.32
2018-04-10T10:41:24.731Z,11.54
2018-04-10T10:42:24.921Z,12.52
2018-04-10T10:43:25.112Z,11.83
2018-04-10T10:44:25.306Z,11.24
2018-04-10T10:45:25.504Z,11.14
2018-04-10T10:46:25.701Z,11.22
2018-04-10T10:47:25.909Z,11.43
2018-04-10T10:48:26.107Z,11.04
2018-04-10T10:49:26.298Z,11.15
2018-04-10T10:50:26.490Z,10.64
2018-04-10T10:51:26.686Z,10.44
2018-04-10T10:52:26.878Z,11.24
2018-04-10T10:53:27.071Z,10.74
2018-04-10T10:54:27.260Z,10.55
2018-04-10T10:55:27.448Z,10.84
2018-04-10T10:56:27.646Z,11.14
2018-04-10T10:57:27.856Z,10.85
2018-04-10T10:58:28.039Z,11.04
2018-04-10T10:59:28.223Z,10.63
2018-04-10T11:00:28.429Z,11.32
2018-04-10T11:01:28.633Z,11.22
2018-04-10T11:02:28.824Z,10.44
2018-04-10T11:03:29.020Z,10.74
2018-04-10T11:04:29.215Z,10.35
2018-04-10T11:05:29.409Z,10.74
2018-04-10T11:06:29.619Z,10.15
2018-04-10T11:07:29.797Z,9.84
2018-04-10T11:08:30.004Z,10.44
2018-04-10T11:09:30.210Z,10.74
2018-04-10T11:10:30.384Z,10.25
2018-04-10T11:11:30.583Z,9.45
2018-04-10T11:12:30.790Z,9.46
2018-04-10T11:13:30.991Z,8.76
2018-04-10T11:14:31.190Z,9.46
2018-04-10T11:15:31.371Z,9.66
2018-04-10T11:16:31.591Z,9.47
2018-04-10T11:17:31.767Z,10.06
2018-04-10T11:18:32.005Z,9.47
2018-04-10T11:19:32.186Z,9.58
2018-04-10T11:20:32.392Z,9.57
2018-04-10T11:21:32.584Z,10.96
2018-04-10T11:22:32.768Z,10.26
2018-04-10T11:23:32.995Z,9.27
2018-04-10T11:24:33.188Z,9.47
2018-04-10T11:25:33.380Z,8.96
2018-04-10T11:26:33.592Z,9.36
2018-04-10T11:27:33.773Z,9.27
2018-04-10T11:28:33.975Z,9.07
2018-04-10T11:29:34.166Z,9.18
2018-04-10T11:30:34.365Z,9.17
2018-04-10T11:31:34.569Z,8.58
2018-04-10T11:32:34.774Z,8.97
2018-04-10T11:33:34.962Z,9.06
2018-04-10T11:34:35.160Z,9.34
2018-04-10T11:35:35.357Z,10.15
2018-04-10T11:36:35.552Z,9.95
2018-04-10T11:37:35.746Z,9.26
2018-04-10T11:38:35.951Z,9.17
2018-04-10T11:39:36.146Z,8.67
2018-04-10T11:40:36.338Z,8.87
2018-04-10T11:41:36.666Z,9.16
2018-04-10T11:42:36.795Z,9.36
2018-04-10T11:43:37.006Z,8.77
2018-04-10T11:44:37.194Z,8.87
2018-04-10T11:45:37.391Z,8.68
2018-04-10T11:46:37.590Z,8.87
2018-04-10T11:47:37.786Z,8.28
2018-04-10T11:49:30.126Z,8.48
2018-04-10T11:50:30.320Z,8.08
2018-04-10T11:51:30.852Z,8.19
2018-04-10T11:52:30.798Z,8.18
2018-04-10T11:53:31.659Z,7.29
2018-04-10T11:54:31.529Z,7.50
2018-04-10T11:55:36.320Z,7.49
2018-04-10T11:56:33.222Z,7.09
2018-04-10T11:58:54.414Z,6.80
2018-04-10T11:59:54.218Z,7.50
2018-04-10T12:00:53.780Z,7.29
2018-04-10T12:01:54.500Z,7.29
2018-04-10T12:02:54.417Z,7.60
2018-04-10T12:03:55.294Z,7.20
2018-04-10T12:04:54.779Z,7.39
2018-04-10T12:05:55.380Z,7.20
2018-04-10T12:06:54.991Z,6.99
2018-04-10T12:07:55.074Z,7.39
2018-04-10T12:08:55.677Z,7.89
2018-04-10T12:09:56.000Z,7.39
2018-04-10T12:10:55.997Z,7.29
2018-04-10T12:11:56.436Z,7.59
2018-04-10T12:12:56.440Z,7.68
2018-04-10T12:13:57.535Z,8.18
2018-04-10T12:14:57.261Z,8.08
2018-04-10T12:15:57.113Z,8.09
2018-04-10T12:16:57.560Z,7.99
2018-04-10T12:17:57.426Z,7.18
2018-04-10T12:18:57.490Z,7.69
2018-04-10T12:19:57.553Z,7.50
2018-04-10T12:20:57.823Z,7.29
2018-04-10T12:21:57.802Z,7.98
2018-04-10T12:22:58.014Z,8.18
2018-04-10T12:23:58.212Z,8.18
2018-04-10T12:24:58.416Z,8.67
2018-04-10T12:25:58.616Z,8.96
2018-04-10T12:26:58.818Z,9.15
2018-04-10T12:27:59.020Z,9.64
2018-04-10T12:28:59.216Z,10.13
2018-04-10T12:29:59.526Z,10.42
2018-04-10T12:30:59.650Z,10.42
2018-04-10T12:31:59.846Z,10.82
2018-04-10T12:33:00.038Z,10.72
2018-04-10T12:34:00.239Z,10.33
2018-04-10T12:35:00.438Z,10.42
2018-04-10T12:36:00.632Z,10.71
2018-04-10T12:37:00.842Z,11.19
2018-04-10T12:38:01.043Z,10.80
2018-04-10T12:39:01.241Z,10.90
2018-04-10T12:40:01.437Z,11.19
2018-04-10T12:41:01.640Z,11.48
2018-04-10T12:42:01.830Z,13.06
2018-04-10T12:43:02.071Z,12.16
2018-04-10T12:44:02.257Z,12.76
2018-04-10T12:45:02.417Z,12.55
2018-04-10T12:46:02.615Z,12.36
2018-04-10T12:47:02.813Z,13.15
2018-04-10T12:48:03.004Z,13.24
2018-04-10T12:49:03.198Z,12.94
2018-04-10T12:50:03.396Z,13.24
2018-04-10T12:51:03.583Z,12.75
2018-04-10T12:52:03.774Z,12.46
2018-04-10T12:53:03.972Z,12.37
2018-04-10T12:54:04.162Z,12.95
2018-04-10T12:55:04.355Z,13.13
2018-04-10T12:56:04.546Z,13.24
2018-04-10T12:57:04.740Z,13.24
2018-04-10T12:58:04.934Z,14.12
2018-04-10T12:59:05.124Z,14.51
2018-04-10T13:00:05.321Z,14.11